sensor_id;sensor_type;location;lat;lon;timestamp;pressure;altitude;pressure_sealevel;temperature;humidity
50650;BME280;36621;60.058;30.346;2023-04-28T00:03:54;100996.44;;;7.05;67.76
50650;BME280;36621;60.058;30.346;2023-04-28T00:11:28;101016.81;;;7.19;67.32
50650;BME280;36621;60.058;30.346;2023-04-28T00:19:00;101010.28;;;7.03;67.02
50650;BME280;36621;60.058;30.346;2023-04-28T00:26:33;101019.59;;;7.07;66.96
50650;BME280;36621;60.058;30.346;2023-04-28T00:34:05;101015.31;;;7.11;67.69
50650;BME280;36621;60.058;30.346;2023-04-28T00:41:38;101022.31;;;7.07;67.42
50650;BME280;36621;60.058;30.346;2023-04-28T00:49:10;101037.53;;;7.08;66.54
50650;BME280;36621;60.058;30.346;2023-04-28T00:56:43;101037.78;;;7.07;67.25
50650;BME280;36621;60.058;30.346;2023-04-28T01:04:16;101032.59;;;7.05;67.14
50650;BME280;36621;60.058;30.346;2023-04-28T01:11:51;101032.22;;;7.13;67.48
50650;BME280;36621;60.058;30.346;2023-04-28T01:19:38;101032.78;;;7.16;67.22
50650;BME280;36621;60.058;30.346;2023-04-28T01:27:10;101013.59;;;7.05;67.32
50650;BME280;36621;60.058;30.346;2023-04-28T01:34:45;101020.88;;;7.05;67.42
50650;BME280;36621;60.058;30.346;2023-04-28T01:42:18;101019.22;;;7.16;67.27
50650;BME280;36621;60.058;30.346;2023-04-28T01:49:50;101037.91;;;7.29;66.89
50650;BME280;36621;60.058;30.346;2023-04-28T01:57:23;101006.19;;;7.18;67.88
50650;BME280;36621;60.058;30.346;2023-04-28T02:04:56;101038.44;;;7.43;68.02
50650;BME280;36621;60.058;30.346;2023-04-28T02:12:29;101041.59;;;7.52;67.14
50650;BME280;36621;60.058;30.346;2023-04-28T02:20:01;101041.00;;;7.50;65.98
50650;BME280;36621;60.058;30.346;2023-04-28T02:27:35;100967.44;;;7.05;67.23
50650;BME280;36621;60.058;30.346;2023-04-28T02:35:07;101050.50;;;7.64;67.01
50650;BME280;36621;60.058;30.346;2023-04-28T02:42:40;101033.22;;;7.70;67.06
50650;BME280;36621;60.058;30.346;2023-04-28T02:50:12;101020.03;;;7.62;66.50
50650;BME280;36621;60.058;30.346;2023-04-28T02:57:45;101048.22;;;7.90;66.87
50650;BME280;36621;60.058;30.346;2023-04-28T03:05:17;101021.91;;;7.78;66.69
50650;BME280;36621;60.058;30.346;2023-04-28T03:12:49;101059.34;;;8.05;66.55
50650;BME280;36621;60.058;30.346;2023-04-28T03:20:22;101045.25;;;8.08;66.79
50650;BME280;36621;60.058;30.346;2023-04-28T03:27:55;101055.13;;;8.14;67.55
50650;BME280;36621;60.058;30.346;2023-04-28T03:35:27;101048.97;;;8.02;65.82
50650;BME280;36621;60.058;30.346;2023-04-28T03:43:01;101057.44;;;8.23;66.35
50650;BME280;36621;60.058;30.346;2023-04-28T03:50:38;101049.44;;;8.16;66.15
50650;BME280;36621;60.058;30.346;2023-04-28T03:58:14;101072.09;;;8.39;65.41
50650;BME280;36621;60.058;30.346;2023-04-28T04:05:46;101046.13;;;8.31;64.79
50650;BME280;36621;60.058;30.346;2023-04-28T04:13:19;101074.41;;;8.47;64.76
50650;BME280;36621;60.058;30.346;2023-04-28T04:20:52;101085.13;;;8.37;64.69
50650;BME280;36621;60.058;30.346;2023-04-28T04:28:27;101085.06;;;8.48;65.14
50650;BME280;36621;60.058;30.346;2023-04-28T04:36:00;101086.13;;;8.47;64.20
50650;BME280;36621;60.058;30.346;2023-04-28T04:43:33;101091.38;;;8.71;63.84
50650;BME280;36621;60.058;30.346;2023-04-28T04:51:06;101087.53;;;8.72;63.40
50650;BME280;36621;60.058;30.346;2023-04-28T04:58:41;101099.28;;;8.95;64.18
50650;BME280;36621;60.058;30.346;2023-04-28T16:58:50;101136.47;;;10.75;33.08
50650;BME280;36621;60.058;30.346;2023-04-28T17:06:22;101140.16;;;10.53;33.93
50650;BME280;36621;60.058;30.346;2023-04-28T17:13:55;101146.22;;;10.60;34.35
50650;BME280;36621;60.058;30.346;2023-04-28T17:21:27;101135.22;;;10.55;35.23
50650;BME280;36621;60.058;30.346;2023-04-28T17:29:00;101144.47;;;10.49;34.33
50650;BME280;36621;60.058;30.346;2023-04-28T17:36:32;101149.25;;;10.32;34.41
50650;BME280;36621;60.058;30.346;2023-04-28T17:44:05;101145.81;;;10.14;34.07
50650;BME280;36621;60.058;30.346;2023-04-28T17:51:37;101144.84;;;9.98;35.36
50650;BME280;36621;60.058;30.346;2023-04-28T17:59:10;101153.44;;;9.85;34.79
50650;BME280;36621;60.058;30.346;2023-04-28T18:06:44;101144.28;;;9.69;35.76
50650;BME280;36621;60.058;30.346;2023-04-28T18:14:17;101136.25;;;9.57;35.91
50650;BME280;36621;60.058;30.346;2023-04-28T18:21:49;101148.22;;;9.56;35.53
50650;BME280;36621;60.058;30.346;2023-04-28T18:29:22;101127.59;;;9.38;35.89
50650;BME280;36621;60.058;30.346;2023-04-28T18:36:54;101137.09;;;9.35;35.48
50650;BME280;36621;60.058;30.346;2023-04-28T18:44:27;101127.41;;;9.23;35.87
50650;BME280;36621;60.058;30.346;2023-04-28T18:51:59;101119.22;;;9.23;36.57
50650;BME280;36621;60.058;30.346;2023-04-28T18:59:34;101098.00;;;9.02;35.87
50650;BME280;36621;60.058;30.346;2023-04-28T19:07:07;101127.38;;;9.17;36.08
50650;BME280;36621;60.058;30.346;2023-04-28T19:14:39;101127.28;;;9.12;37.16
50650;BME280;36621;60.058;30.346;2023-04-28T19:22:28;101113.28;;;9.26;38.19
50650;BME280;36621;60.058;30.346;2023-04-28T19:30:02;101113.91;;;8.89;38.38
50650;BME280;36621;60.058;30.346;2023-04-28T19:37:35;101119.16;;;8.73;38.03
50650;BME280;36621;60.058;30.346;2023-04-28T19:45:09;101126.03;;;8.81;39.00
50650;BME280;36621;60.058;30.346;2023-04-28T19:52:41;101129.63;;;8.81;40.89
50650;BME280;36621;60.058;30.346;2023-04-28T20:00:14;101119.88;;;8.85;42.43
50650;BME280;36621;60.058;30.346;2023-04-28T20:07:47;101115.09;;;8.76;43.53
50650;BME280;36621;60.058;30.346;2023-04-28T20:15:20;101092.53;;;8.58;43.76
50650;BME280;36621;60.058;30.346;2023-04-28T20:22:52;101110.97;;;8.73;44.39
50650;BME280;36621;60.058;30.346;2023-04-28T20:30:25;101099.06;;;8.79;44.18
50650;BME280;36621;60.058;30.346;2023-04-28T20:37:58;101097.88;;;8.92;44.86
50650;BME280;36621;60.058;30.346;2023-04-28T20:45:30;101068.88;;;8.81;44.27
50650;BME280;36621;60.058;30.346;2023-04-28T20:53:03;101022.97;;;8.45;45.22
50650;BME280;36621;60.058;30.346;2023-04-28T21:00:36;101085.75;;;9.00;44.61
50650;BME280;36621;60.058;30.346;2023-04-28T21:08:11;101076.34;;;8.91;44.87
50650;BME280;36621;60.058;30.346;2023-04-28T21:15:43;101083.19;;;8.93;44.84
50650;BME280;36621;60.058;30.346;2023-04-28T21:23:15;101071.94;;;8.84;44.42
50650;BME280;36621;60.058;30.346;2023-04-28T21:30:51;101086.31;;;9.02;44.17
50650;BME280;36621;60.058;30.346;2023-04-28T21:38:23;101083.25;;;8.98;44.19
50650;BME280;36621;60.058;30.346;2023-04-28T21:45:56;101067.03;;;8.86;44.68
50650;BME280;36621;60.058;30.346;2023-04-28T21:53:28;101069.38;;;8.78;44.60
50650;BME280;36621;60.058;30.346;2023-04-28T22:01:01;101071.72;;;8.69;45.78
50650;BME280;36621;60.058;30.346;2023-04-28T22:08:33;100970.06;;;7.80;46.92
50650;BME280;36621;60.058;30.346;2023-04-28T22:16:06;101063.03;;;8.33;47.51
50650;BME280;36621;60.058;30.346;2023-04-28T22:23:39;101068.16;;;8.12;48.17
50650;BME280;36621;60.058;30.346;2023-04-28T22:31:12;101057.19;;;8.07;48.40
50650;BME280;36621;60.058;30.346;2023-04-28T22:38:44;101054.16;;;8.04;48.53
50650;BME280;36621;60.058;30.346;2023-04-28T22:46:17;101050.94;;;8.24;47.65
50650;BME280;36621;60.058;30.346;2023-04-28T22:53:49;101046.34;;;8.46;47.30
50650;BME280;36621;60.058;30.346;2023-04-28T23:01:22;101050.75;;;8.47;47.21
50650;BME280;36621;60.058;30.346;2023-04-28T23:08:54;101040.25;;;8.56;47.24
50650;BME280;36621;60.058;30.346;2023-04-28T23:16:27;101016.59;;;8.57;46.49
50650;BME280;36621;60.058;30.346;2023-04-28T23:23:59;101015.63;;;8.68;46.80
50650;BME280;36621;60.058;30.346;2023-04-28T23:31:32;101005.56;;;8.68;46.66
50650;BME280;36621;60.058;30.346;2023-04-28T23:39:09;101008.09;;;8.53;46.77
50650;BME280;36621;60.058;30.346;2023-04-28T23:46:42;101016.84;;;8.38;47.74
50650;BME280;36621;60.058;30.346;2023-04-28T23:54:14;101025.69;;;8.45;48.52
